Alma, Illinois
Current Conditions -  °F | °C
As of 8:55 AM on Friday 28 Nov 2014 (Local Time) from KENL Reporting Station
Clear Clear  
Wind Chill: 20°   Ceiling: Unl
Heat Index: 31°   Visibility: 7mi
Dew Point: 25°   Wind: 16mph
Humidity: 79%   Direction: 170°S
Pressure: 30.28"   Gusts: 20mph
Location:  38.72°N, 88.91°W
Report Text: KENL 281455Z AUTO 17014G17KT 7SM CLR M01/M04 A3028 RMK AO2 P0001 60001 T10071040
Loading
Personal Weather Stations






























Interactive Weather Map New forecast layout! Learn more

10-Day Weather Forecast

Advertisements
Track Severe Weather on mobile